Famagusta, Cyprus
Current Conditions -  °F | °C
As of 4:20 AM on Thursday 23 Oct 2014 (Local Time) from LCEN Reporting Station
Scattered Clouds Scattered Clouds  
Wind Chill: 16°   Ceiling: Unl
Heat Index: 16°   Visibility: 6mi
Dew Point: 12°   Wind: 3mph
Humidity: 77%   Direction: 260°W
Pressure: 29.91"   Gusts: NA
Location:  35.33°N, 34.07°E
Report Text: LCEN 230120Z 26003KT 9999 SCT030 16/12 Q1013 NOSIG
Loading
Personal Weather Stations






























Interactive Weather Map
Tropical Storm Tracking
New forecast layout! Learn more

10-Day Weather Forecast

Advertisements
Track Severe Weather on mobile